sensor_id;sensor_type;location;lat;lon;timestamp;P1;durP1;ratioP1;P2;durP2;ratioP2
59938;SDS011;45801;51.810;19.444;2023-04-24T00:00:40;16.80;;;9.80;;
59938;SDS011;45801;51.810;19.444;2023-04-24T00:03:23;18.20;;;9.90;;
59938;SDS011;45801;51.810;19.444;2023-04-24T00:05:50;15.80;;;10.20;;
59938;SDS011;45801;51.810;19.444;2023-04-24T00:08:17;15.30;;;9.30;;
59938;SDS011;45801;51.810;19.444;2023-04-24T00:10:44;16.10;;;9.80;;
59938;SDS011;45801;51.810;19.444;2023-04-24T00:13:10;13.50;;;9.80;;
59938;SDS011;45801;51.810;19.444;2023-04-24T00:15:37;15.70;;;10.60;;
59938;SDS011;45801;51.810;19.444;2023-04-24T00:18:03;18.70;;;12.20;;
59938;SDS011;45801;51.810;19.444;2023-04-24T00:20:30;19.90;;;12.10;;
59938;SDS011;45801;51.810;19.444;2023-04-24T00:22:58;19.80;;;13.60;;
59938;SDS011;45801;51.810;19.444;2023-04-24T00:25:25;20.10;;;13.10;;
59938;SDS011;45801;51.810;19.444;2023-04-24T00:27:51;17.70;;;12.10;;
59938;SDS011;45801;51.810;19.444;2023-04-24T00:30:18;16.20;;;11.10;;
59938;SDS011;45801;51.810;19.444;2023-04-24T00:32:44;20.00;;;11.50;;
59938;SDS011;45801;51.810;19.444;2023-04-24T00:35:11;18.30;;;11.80;;
59938;SDS011;45801;51.810;19.444;2023-04-24T00:37:38;17.40;;;12.20;;
59938;SDS011;45801;51.810;19.444;2023-04-24T00:40:05;17.90;;;11.40;;
59938;SDS011;45801;51.810;19.444;2023-04-24T00:42:32;19.10;;;12.50;;
59938;SDS011;45801;51.810;19.444;2023-04-24T00:44:59;19.40;;;11.80;;
59938;SDS011;45801;51.810;19.444;2023-04-24T00:47:27;17.20;;;12.00;;
59938;SDS011;45801;51.810;19.444;2023-04-24T00:49:54;15.40;;;11.60;;
59938;SDS011;45801;51.810;19.444;2023-04-24T00:52:21;15.50;;;10.10;;
59938;SDS011;45801;51.810;19.444;2023-04-24T00:54:50;14.80;;;10.20;;
59938;SDS011;45801;51.810;19.444;2023-04-24T00:57:16;16.60;;;11.10;;
59938;SDS011;45801;51.810;19.444;2023-04-24T00:59:43;16.20;;;10.50;;
59938;SDS011;45801;51.810;19.444;2023-04-24T01:02:10;17.20;;;10.90;;
59938;SDS011;45801;51.810;19.444;2023-04-24T01:04:37;13.80;;;9.90;;
59938;SDS011;45801;51.810;19.444;2023-04-24T01:07:04;14.10;;;11.30;;
59938;SDS011;45801;51.810;19.444;2023-04-24T01:09:37;17.10;;;11.60;;
59938;SDS011;45801;51.810;19.444;2023-04-24T01:12:06;14.60;;;10.90;;
59938;SDS011;45801;51.810;19.444;2023-04-24T01:14:33;16.70;;;11.50;;
59938;SDS011;45801;51.810;19.444;2023-04-24T01:16:59;17.00;;;11.10;;
59938;SDS011;45801;51.810;19.444;2023-04-24T01:19:26;16.50;;;11.80;;
59938;SDS011;45801;51.810;19.444;2023-04-24T01:21:53;17.60;;;11.10;;
59938;SDS011;45801;51.810;19.444;2023-04-24T01:24:25;17.40;;;11.40;;
59938;SDS011;45801;51.810;19.444;2023-04-24T01:26:52;17.70;;;10.30;;
59938;SDS011;45801;51.810;19.444;2023-04-24T01:29:19;13.90;;;10.20;;
59938;SDS011;45801;51.810;19.444;2023-04-24T01:31:47;14.50;;;10.50;;
59938;SDS011;45801;51.810;19.444;2023-04-24T01:34:13;16.00;;;11.10;;
59938;SDS011;45801;51.810;19.444;2023-04-24T01:36:41;17.80;;;11.20;;
59938;SDS011;45801;51.810;19.444;2023-04-24T01:39:07;15.40;;;11.20;;
59938;SDS011;45801;51.810;19.444;2023-04-24T01:41:34;18.00;;;10.90;;
59938;SDS011;45801;51.810;19.444;2023-04-24T01:44:00;16.80;;;10.90;;
59938;SDS011;45801;51.810;19.444;2023-04-24T01:46:27;18.10;;;11.20;;
59938;SDS011;45801;51.810;19.444;2023-04-24T01:48:54;16.90;;;11.50;;
59938;SDS011;45801;51.810;19.444;2023-04-24T01:51:20;16.80;;;11.60;;
59938;SDS011;45801;51.810;19.444;2023-04-24T01:53:47;16.00;;;11.60;;
59938;SDS011;45801;51.810;19.444;2023-04-24T01:56:14;16.40;;;12.10;;
59938;SDS011;45801;51.810;19.444;2023-04-24T01:58:41;14.40;;;10.40;;
59938;SDS011;45801;51.810;19.444;2023-04-24T02:01:08;16.40;;;10.70;;
59938;SDS011;45801;51.810;19.444;2023-04-24T02:03:34;14.70;;;10.60;;
59938;SDS011;45801;51.810;19.444;2023-04-24T02:06:00;16.10;;;10.00;;
59938;SDS011;45801;51.810;19.444;2023-04-24T02:08:27;13.80;;;10.50;;
59938;SDS011;45801;51.810;19.444;2023-04-24T02:10:53;16.20;;;9.80;;
59938;SDS011;45801;51.810;19.444;2023-04-24T02:13:20;17.40;;;11.00;;
59938;SDS011;45801;51.810;19.444;2023-04-24T02:15:46;14.90;;;10.40;;
59938;SDS011;45801;51.810;19.444;2023-04-24T02:18:13;17.70;;;10.90;;
59938;SDS011;45801;51.810;19.444;2023-04-24T02:20:39;17.00;;;10.60;;
59938;SDS011;45801;51.810;19.444;2023-04-24T02:23:06;15.20;;;10.10;;
59938;SDS011;45801;51.810;19.444;2023-04-24T02:25:33;14.50;;;10.50;;
59938;SDS011;45801;51.810;19.444;2023-04-24T02:28:00;13.40;;;9.30;;
59938;SDS011;45801;51.810;19.444;2023-04-24T02:30:27;14.20;;;9.20;;
59938;SDS011;45801;51.810;19.444;2023-04-24T02:32:53;15.40;;;9.80;;
59938;SDS011;45801;51.810;19.444;2023-04-24T02:35:21;13.00;;;8.90;;
59938;SDS011;45801;51.810;19.444;2023-04-24T02:37:47;12.70;;;9.00;;
59938;SDS011;45801;51.810;19.444;2023-04-24T02:40:14;14.90;;;9.50;;
59938;SDS011;45801;51.810;19.444;2023-04-24T02:42:40;14.90;;;9.20;;
59938;SDS011;45801;51.810;19.444;2023-04-24T02:45:07;12.80;;;8.30;;
59938;SDS011;45801;51.810;19.444;2023-04-24T02:47:34;12.60;;;8.80;;
59938;SDS011;45801;51.810;19.444;2023-04-24T02:50:01;13.70;;;8.90;;
59938;SDS011;45801;51.810;19.444;2023-04-24T02:52:29;13.40;;;7.80;;
59938;SDS011;45801;51.810;19.444;2023-04-24T02:54:55;11.50;;;8.30;;
59938;SDS011;45801;51.810;19.444;2023-04-24T02:57:22;14.10;;;8.50;;
59938;SDS011;45801;51.810;19.444;2023-04-24T02:59:48;14.80;;;7.90;;
59938;SDS011;45801;51.810;19.444;2023-04-24T03:02:15;15.20;;;9.30;;
59938;SDS011;45801;51.810;19.444;2023-04-24T03:04:41;14.70;;;8.50;;
59938;SDS011;45801;51.810;19.444;2023-04-24T03:07:09;13.10;;;8.70;;
59938;SDS011;45801;51.810;19.444;2023-04-24T03:09:35;14.50;;;9.30;;
59938;SDS011;45801;51.810;19.444;2023-04-24T03:12:01;14.30;;;9.10;;
59938;SDS011;45801;51.810;19.444;2023-04-24T03:14:28;13.30;;;8.70;;
59938;SDS011;45801;51.810;19.444;2023-04-24T03:16:57;15.00;;;8.80;;
59938;SDS011;45801;51.810;19.444;2023-04-24T03:19:23;13.70;;;9.30;;
59938;SDS011;45801;51.810;19.444;2023-04-24T03:21:50;12.60;;;7.90;;
59938;SDS011;45801;51.810;19.444;2023-04-24T03:24:17;12.70;;;8.20;;
59938;SDS011;45801;51.810;19.444;2023-04-24T03:26:43;13.30;;;8.60;;
59938;SDS011;45801;51.810;19.444;2023-04-24T03:29:09;14.00;;;8.40;;
59938;SDS011;45801;51.810;19.444;2023-04-24T03:31:36;14.60;;;8.50;;
59938;SDS011;45801;51.810;19.444;2023-04-24T03:34:02;13.80;;;8.60;;
59938;SDS011;45801;51.810;19.444;2023-04-24T03:36:30;13.90;;;8.30;;
59938;SDS011;45801;51.810;19.444;2023-04-24T03:38:57;12.50;;;8.60;;
59938;SDS011;45801;51.810;19.444;2023-04-24T03:41:24;12.50;;;7.80;;
59938;SDS011;45801;51.810;19.444;2023-04-24T03:43:52;12.20;;;7.70;;
59938;SDS011;45801;51.810;19.444;2023-04-24T03:46:19;12.50;;;8.70;;
59938;SDS011;45801;51.810;19.444;2023-04-24T03:48:45;13.80;;;8.80;;
59938;SDS011;45801;51.810;19.444;2023-04-24T03:51:12;16.00;;;9.40;;
59938;SDS011;45801;51.810;19.444;2023-04-24T03:53:38;13.40;;;8.20;;
59938;SDS011;45801;51.810;19.444;2023-04-24T03:56:04;16.20;;;8.90;;
59938;SDS011;45801;51.810;19.444;2023-04-24T03:58:31;13.10;;;8.50;;
59938;SDS011;45801;51.810;19.444;2023-04-24T04:00:57;23.80;;;10.00;;
59938;SDS011;45801;51.810;19.444;2023-04-24T04:03:24;25.40;;;10.90;;
59938;SDS011;45801;51.810;19.444;2023-04-24T04:05:51;23.50;;;9.10;;
59938;SDS011;45801;51.810;19.444;2023-04-24T04:08:18;11.90;;;8.20;;
59938;SDS011;45801;51.810;19.444;2023-04-24T04:10:44;14.50;;;8.20;;
59938;SDS011;45801;51.810;19.444;2023-04-24T04:13:12;14.70;;;8.40;;
59938;SDS011;45801;51.810;19.444;2023-04-24T04:15:38;12.20;;;8.40;;
59938;SDS011;45801;51.810;19.444;2023-04-24T04:18:04;14.40;;;9.10;;
59938;SDS011;45801;51.810;19.444;2023-04-24T04:20:31;14.00;;;8.80;;
59938;SDS011;45801;51.810;19.444;2023-04-24T04:22:58;12.70;;;8.30;;
59938;SDS011;45801;51.810;19.444;2023-04-24T04:25:24;12.30;;;8.20;;
59938;SDS011;45801;51.810;19.444;2023-04-24T04:27:50;14.30;;;9.10;;
59938;SDS011;45801;51.810;19.444;2023-04-24T04:30:18;14.40;;;8.60;;
59938;SDS011;45801;51.810;19.444;2023-04-24T04:32:44;15.70;;;8.60;;
59938;SDS011;45801;51.810;19.444;2023-04-24T04:35:11;15.40;;;8.60;;
59938;SDS011;45801;51.810;19.444;2023-04-24T04:37:37;13.10;;;9.00;;
59938;SDS011;45801;51.810;19.444;2023-04-24T04:40:04;14.30;;;8.90;;
59938;SDS011;45801;51.810;19.444;2023-04-24T04:42:37;14.70;;;8.30;;
59938;SDS011;45801;51.810;19.444;2023-04-24T04:45:07;17.40;;;8.10;;
59938;SDS011;45801;51.810;19.444;2023-04-24T04:47:35;13.20;;;7.70;;
59938;SDS011;45801;51.810;19.444;2023-04-24T04:50:01;14.60;;;8.90;;
59938;SDS011;45801;51.810;19.444;2023-04-24T04:52:29;14.50;;;9.40;;
59938;SDS011;45801;51.810;19.444;2023-04-24T04:54:56;14.60;;;8.00;;
59938;SDS011;45801;51.810;19.444;2023-04-24T04:57:23;14.70;;;8.60;;
59938;SDS011;45801;51.810;19.444;2023-04-24T04:59:49;12.30;;;8.00;;
59938;SDS011;45801;51.810;19.444;2023-04-24T05:02:16;12.80;;;7.80;;
59938;SDS011;45801;51.810;19.444;2023-04-24T05:04:42;13.30;;;8.20;;
59938;SDS011;45801;51.810;19.444;2023-04-24T05:07:08;13.70;;;7.90;;
59938;SDS011;45801;51.810;19.444;2023-04-24T05:09:35;11.60;;;7.70;;
59938;SDS011;45801;51.810;19.444;2023-04-24T05:12:01;12.70;;;7.50;;
59938;SDS011;45801;51.810;19.444;2023-04-24T05:14:28;13.80;;;8.00;;
59938;SDS011;45801;51.810;19.444;2023-04-24T05:16:55;13.30;;;7.90;;
59938;SDS011;45801;51.810;19.444;2023-04-24T05:19:21;13.90;;;8.10;;
59938;SDS011;45801;51.810;19.444;2023-04-24T05:21:48;13.40;;;7.90;;
59938;SDS011;45801;51.810;19.444;2023-04-24T05:24:14;12.90;;;7.50;;
59938;SDS011;45801;51.810;19.444;2023-04-24T05:26:41;15.90;;;8.50;;
59938;SDS011;45801;51.810;19.444;2023-04-24T05:29:07;13.40;;;7.00;;
59938;SDS011;45801;51.810;19.444;2023-04-24T05:31:34;16.20;;;8.80;;
59938;SDS011;45801;51.810;19.444;2023-04-24T05:34:00;12.10;;;8.20;;
59938;SDS011;45801;51.810;19.444;2023-04-24T05:36:27;14.70;;;7.90;;
59938;SDS011;45801;51.810;19.444;2023-04-24T05:38:54;12.90;;;8.10;;
59938;SDS011;45801;51.810;19.444;2023-04-24T05:41:20;13.70;;;8.70;;
59938;SDS011;45801;51.810;19.444;2023-04-24T05:43:47;15.00;;;8.00;;
59938;SDS011;45801;51.810;19.444;2023-04-24T05:46:13;12.00;;;7.90;;
59938;SDS011;45801;51.810;19.444;2023-04-24T05:48:40;12.60;;;8.00;;
59938;SDS011;45801;51.810;19.444;2023-04-24T05:51:06;11.80;;;7.50;;
59938;SDS011;45801;51.810;19.444;2023-04-24T05:53:34;12.50;;;7.30;;
59938;SDS011;45801;51.810;19.444;2023-04-24T05:56:00;13.60;;;7.90;;
59938;SDS011;45801;51.810;19.444;2023-04-24T05:58:27;10.40;;;6.80;;
59938;SDS011;45801;51.810;19.444;2023-04-24T06:00:53;12.90;;;7.30;;
59938;SDS011;45801;51.810;19.444;2023-04-24T06:03:21;12.20;;;7.40;;
59938;SDS011;45801;51.810;19.444;2023-04-24T06:09:28;12.50;;;6.90;;
59938;SDS011;45801;51.810;19.444;2023-04-24T06:15:35;12.30;;;6.70;;
59938;SDS011;45801;51.810;19.444;2023-04-24T06:18:01;14.20;;;6.80;;
59938;SDS011;45801;51.810;19.444;2023-04-24T06:20:28;11.10;;;6.30;;
59938;SDS011;45801;51.810;19.444;2023-04-24T06:22:55;10.20;;;6.10;;
59938;SDS011;45801;51.810;19.444;2023-04-24T06:25:24;12.70;;;6.90;;
59938;SDS011;45801;51.810;19.444;2023-04-24T06:27:52;11.30;;;5.90;;
59938;SDS011;45801;51.810;19.444;2023-04-24T06:30:20;14.20;;;6.30;;
59938;SDS011;45801;51.810;19.444;2023-04-24T06:32:47;11.90;;;5.90;;
59938;SDS011;45801;51.810;19.444;2023-04-24T06:35:14;10.70;;;5.90;;
59938;SDS011;45801;51.810;19.444;2023-04-24T06:37:42;12.80;;;6.30;;
59938;SDS011;45801;51.810;19.444;2023-04-24T06:40:09;12.70;;;5.70;;
59938;SDS011;45801;51.810;19.444;2023-04-24T06:42:36;11.50;;;5.80;;
59938;SDS011;45801;51.810;19.444;2023-04-24T06:45:03;12.70;;;5.70;;
59938;SDS011;45801;51.810;19.444;2023-04-24T06:47:31;10.50;;;6.00;;
59938;SDS011;45801;51.810;19.444;2023-04-24T06:50:00;13.60;;;5.90;;
59938;SDS011;45801;51.810;19.444;2023-04-24T06:52:26;12.10;;;5.90;;
59938;SDS011;45801;51.810;19.444;2023-04-24T06:54:59;11.70;;;5.90;;
59938;SDS011;45801;51.810;19.444;2023-04-24T06:57:26;9.00;;;5.00;;
59938;SDS011;45801;51.810;19.444;2023-04-24T06:59:52;10.30;;;5.50;;
59938;SDS011;45801;51.810;19.444;2023-04-24T07:02:19;11.80;;;5.30;;
59938;SDS011;45801;51.810;19.444;2023-04-24T07:04:46;8.80;;;4.50;;
59938;SDS011;45801;51.810;19.444;2023-04-24T07:07:14;11.10;;;4.90;;
59938;SDS011;45801;51.810;19.444;2023-04-24T07:09:40;10.40;;;5.00;;
59938;SDS011;45801;51.810;19.444;2023-04-24T07:12:08;8.50;;;4.70;;
59938;SDS011;45801;51.810;19.444;2023-04-24T07:14:36;9.40;;;5.10;;
59938;SDS011;45801;51.810;19.444;2023-04-24T07:17:04;10.10;;;4.60;;
59938;SDS011;45801;51.810;19.444;2023-04-24T07:19:30;9.50;;;4.80;;
59938;SDS011;45801;51.810;19.444;2023-04-24T07:21:57;10.30;;;5.10;;
59938;SDS011;45801;51.810;19.444;2023-04-24T07:24:25;10.10;;;4.90;;
59938;SDS011;45801;51.810;19.444;2023-04-24T07:26:52;9.60;;;5.10;;
59938;SDS011;45801;51.810;19.444;2023-04-24T07:29:18;9.00;;;4.50;;
59938;SDS011;45801;51.810;19.444;2023-04-24T07:31:46;11.50;;;4.90;;
59938;SDS011;45801;51.810;19.444;2023-04-24T07:34:12;10.60;;;5.20;;
59938;SDS011;45801;51.810;19.444;2023-04-24T07:36:40;9.60;;;4.20;;
59938;SDS011;45801;51.810;19.444;2023-04-24T07:39:07;8.40;;;4.70;;
59938;SDS011;45801;51.810;19.444;2023-04-24T07:41:34;8.40;;;4.50;;
59938;SDS011;45801;51.810;19.444;2023-04-24T07:44:01;8.80;;;4.20;;
59938;SDS011;45801;51.810;19.444;2023-04-24T07:46:27;10.60;;;4.40;;
59938;SDS011;45801;51.810;19.444;2023-04-24T07:48:56;10.00;;;4.90;;
59938;SDS011;45801;51.810;19.444;2023-04-24T07:51:22;10.70;;;5.00;;
59938;SDS011;45801;51.810;19.444;2023-04-24T07:53:49;11.20;;;5.10;;
59938;SDS011;45801;51.810;19.444;2023-04-24T07:56:16;10.60;;;4.90;;
59938;SDS011;45801;51.810;19.444;2023-04-24T07:58:43;8.90;;;4.60;;
59938;SDS011;45801;51.810;19.444;2023-04-24T08:01:09;8.30;;;3.60;;
59938;SDS011;45801;51.810;19.444;2023-04-24T08:03:36;8.70;;;4.80;;
59938;SDS011;45801;51.810;19.444;2023-04-24T08:06:02;8.50;;;4.40;;
59938;SDS011;45801;51.810;19.444;2023-04-24T08:08:29;9.70;;;4.40;;
59938;SDS011;45801;51.810;19.444;2023-04-24T08:10:56;8.40;;;4.00;;
59938;SDS011;45801;51.810;19.444;2023-04-24T08:13:22;9.10;;;3.80;;
59938;SDS011;45801;51.810;19.444;2023-04-24T08:15:49;9.20;;;4.30;;
59938;SDS011;45801;51.810;19.444;2023-04-24T08:18:15;8.70;;;4.10;;
59938;SDS011;45801;51.810;19.444;2023-04-24T08:20:42;10.10;;;4.30;;
59938;SDS011;45801;51.810;19.444;2023-04-24T08:23:08;8.70;;;4.30;;
59938;SDS011;45801;51.810;19.444;2023-04-24T08:25:35;8.90;;;5.00;;
59938;SDS011;45801;51.810;19.444;2023-04-24T08:28:02;8.00;;;4.00;;
59938;SDS011;45801;51.810;19.444;2023-04-24T08:30:30;10.50;;;4.20;;
59938;SDS011;45801;51.810;19.444;2023-04-24T08:32:56;10.00;;;4.90;;
59938;SDS011;45801;51.810;19.444;2023-04-24T08:35:23;7.90;;;4.30;;
59938;SDS011;45801;51.810;19.444;2023-04-24T08:37:49;8.10;;;4.40;;
59938;SDS011;45801;51.810;19.444;2023-04-24T08:40:16;9.60;;;4.00;;
59938;SDS011;45801;51.810;19.444;2023-04-24T08:42:43;9.20;;;4.50;;
59938;SDS011;45801;51.810;19.444;2023-04-24T08:45:11;7.80;;;4.80;;
59938;SDS011;45801;51.810;19.444;2023-04-24T08:47:39;8.20;;;4.60;;
59938;SDS011;45801;51.810;19.444;2023-04-24T08:50:07;8.70;;;4.80;;
59938;SDS011;45801;51.810;19.444;2023-04-24T08:52:35;10.30;;;4.60;;
59938;SDS011;45801;51.810;19.444;2023-04-24T08:55:02;9.80;;;4.30;;
59938;SDS011;45801;51.810;19.444;2023-04-24T08:57:29;9.80;;;4.40;;
59938;SDS011;45801;51.810;19.444;2023-04-24T08:59:57;8.90;;;4.60;;
59938;SDS011;45801;51.810;19.444;2023-04-24T09:02:24;8.50;;;4.40;;
59938;SDS011;45801;51.810;19.444;2023-04-24T09:04:52;8.60;;;4.50;;
59938;SDS011;45801;51.810;19.444;2023-04-24T09:07:19;11.30;;;5.10;;
59938;SDS011;45801;51.810;19.444;2023-04-24T09:09:48;9.50;;;4.60;;
59938;SDS011;45801;51.810;19.444;2023-04-24T09:12:17;8.90;;;4.20;;
59938;SDS011;45801;51.810;19.444;2023-04-24T09:14:44;8.80;;;4.40;;
59938;SDS011;45801;51.810;19.444;2023-04-24T09:17:11;8.40;;;4.30;;
59938;SDS011;45801;51.810;19.444;2023-04-24T09:19:38;9.50;;;4.60;;
59938;SDS011;45801;51.810;19.444;2023-04-24T09:22:05;10.20;;;5.00;;
59938;SDS011;45801;51.810;19.444;2023-04-24T09:24:33;10.60;;;4.60;;
59938;SDS011;45801;51.810;19.444;2023-04-24T09:27:03;8.20;;;4.40;;
59938;SDS011;45801;51.810;19.444;2023-04-24T09:29:30;10.50;;;4.30;;
59938;SDS011;45801;51.810;19.444;2023-04-24T09:31:58;8.10;;;4.10;;
59938;SDS011;45801;51.810;19.444;2023-04-24T09:34:25;8.00;;;4.10;;
59938;SDS011;45801;51.810;19.444;2023-04-24T09:36:53;8.00;;;4.10;;
59938;SDS011;45801;51.810;19.444;2023-04-24T09:39:20;8.50;;;4.10;;
59938;SDS011;45801;51.810;19.444;2023-04-24T09:41:47;8.30;;;4.20;;
59938;SDS011;45801;51.810;19.444;2023-04-24T09:44:18;10.00;;;4.80;;
59938;SDS011;45801;51.810;19.444;2023-04-24T09:46:53;9.20;;;4.30;;
59938;SDS011;45801;51.810;19.444;2023-04-24T09:49:22;7.50;;;3.80;;
59938;SDS011;45801;51.810;19.444;2023-04-24T09:51:51;8.70;;;4.60;;
59938;SDS011;45801;51.810;19.444;2023-04-24T09:54:18;8.00;;;3.80;;
59938;SDS011;45801;51.810;19.444;2023-04-24T09:56:47;9.90;;;4.10;;
59938;SDS011;45801;51.810;19.444;2023-04-24T09:59:17;8.60;;;4.10;;
59938;SDS011;45801;51.810;19.444;2023-04-24T10:01:44;9.00;;;4.60;;
59938;SDS011;45801;51.810;19.444;2023-04-24T10:04:18;8.30;;;4.30;;
59938;SDS011;45801;51.810;19.444;2023-04-24T10:06:48;8.40;;;4.20;;
59938;SDS011;45801;51.810;19.444;2023-04-24T10:09:16;7.80;;;4.30;;
59938;SDS011;45801;51.810;19.444;2023-04-24T10:11:45;8.00;;;4.20;;
59938;SDS011;45801;51.810;19.444;2023-04-24T10:14:15;7.60;;;3.80;;
59938;SDS011;45801;51.810;19.444;2023-04-24T10:16:43;9.10;;;4.10;;
59938;SDS011;45801;51.810;19.444;2023-04-24T10:19:10;8.20;;;4.00;;
59938;SDS011;45801;51.810;19.444;2023-04-24T10:21:40;9.60;;;4.20;;
59938;SDS011;45801;51.810;19.444;2023-04-24T10:24:13;9.20;;;4.40;;
59938;SDS011;45801;51.810;19.444;2023-04-24T10:26:51;7.30;;;4.10;;
59938;SDS011;45801;51.810;19.444;2023-04-24T10:29:18;8.90;;;3.80;;
59938;SDS011;45801;51.810;19.444;2023-04-24T10:31:45;8.30;;;4.10;;
59938;SDS011;45801;51.810;19.444;2023-04-24T10:34:13;10.10;;;4.40;;
59938;SDS011;45801;51.810;19.444;2023-04-24T10:36:42;9.20;;;4.40;;
59938;SDS011;45801;51.810;19.444;2023-04-24T10:39:12;8.50;;;4.40;;
59938;SDS011;45801;51.810;19.444;2023-04-24T10:41:43;8.20;;;4.30;;
59938;SDS011;45801;51.810;19.444;2023-04-24T10:44:13;7.60;;;4.00;;
59938;SDS011;45801;51.810;19.444;2023-04-24T10:46:46;7.80;;;4.50;;
59938;SDS011;45801;51.810;19.444;2023-04-24T10:49:30;8.60;;;4.40;;
59938;SDS011;45801;51.810;19.444;2023-04-24T10:52:01;7.40;;;4.00;;
59938;SDS011;45801;51.810;19.444;2023-04-24T10:59:49;8.10;;;4.90;;
59938;SDS011;45801;51.810;19.444;2023-04-24T11:02:38;8.10;;;4.10;;
59938;SDS011;45801;51.810;19.444;2023-04-24T11:05:06;8.00;;;4.20;;
59938;SDS011;45801;51.810;19.444;2023-04-24T11:08:37;8.10;;;4.70;;
59938;SDS011;45801;51.810;19.444;2023-04-24T11:10:59;9.60;;;4.80;;
59938;SDS011;45801;51.810;19.444;2023-04-24T11:19:05;10.00;;;5.20;;
59938;SDS011;45801;51.810;19.444;2023-04-24T11:21:42;9.30;;;4.80;;
59938;SDS011;45801;51.810;19.444;2023-04-24T11:25:31;9.60;;;4.70;;
59938;SDS011;45801;51.810;19.444;2023-04-24T11:35:13;10.00;;;5.30;;
59938;SDS011;45801;51.810;19.444;2023-04-24T11:37:42;11.60;;;5.00;;
59938;SDS011;45801;51.810;19.444;2023-04-24T11:40:12;8.40;;;4.30;;
59938;SDS011;45801;51.810;19.444;2023-04-24T11:42:44;9.50;;;4.50;;
59938;SDS011;45801;51.810;19.444;2023-04-24T11:45:17;8.00;;;4.70;;
59938;SDS011;45801;51.810;19.444;2023-04-24T11:47:52;8.50;;;4.30;;
59938;SDS011;45801;51.810;19.444;2023-04-24T11:50:20;9.10;;;4.60;;
59938;SDS011;45801;51.810;19.444;2023-04-24T11:52:49;9.00;;;4.70;;
59938;SDS011;45801;51.810;19.444;2023-04-24T11:57:43;8.50;;;4.40;;
59938;SDS011;45801;51.810;19.444;2023-04-24T12:00:21;11.00;;;5.10;;
59938;SDS011;45801;51.810;19.444;2023-04-24T12:03:07;8.30;;;4.70;;
59938;SDS011;45801;51.810;19.444;2023-04-24T12:05:35;7.20;;;4.20;;
59938;SDS011;45801;51.810;19.444;2023-04-24T12:08:02;8.40;;;3.80;;
59938;SDS011;45801;51.810;19.444;2023-04-24T12:10:29;7.30;;;3.90;;
59938;SDS011;45801;51.810;19.444;2023-04-24T12:12:57;7.50;;;3.60;;
59938;SDS011;45801;51.810;19.444;2023-04-24T12:15:25;7.90;;;4.00;;
59938;SDS011;45801;51.810;19.444;2023-04-24T12:17:52;7.30;;;4.00;;
59938;SDS011;45801;51.810;19.444;2023-04-24T12:20:32;8.90;;;4.50;;
59938;SDS011;45801;51.810;19.444;2023-04-24T12:23:00;7.90;;;3.80;;
59938;SDS011;45801;51.810;19.444;2023-04-24T12:25:28;7.30;;;3.90;;
59938;SDS011;45801;51.810;19.444;2023-04-24T12:28:17;8.10;;;4.10;;
59938;SDS011;45801;51.810;19.444;2023-04-24T12:30:43;6.70;;;3.50;;
59938;SDS011;45801;51.810;19.444;2023-04-24T12:33:20;8.10;;;4.00;;
59938;SDS011;45801;51.810;19.444;2023-04-24T12:35:47;9.50;;;4.10;;
59938;SDS011;45801;51.810;19.444;2023-04-24T12:38:21;7.40;;;3.30;;
59938;SDS011;45801;51.810;19.444;2023-04-24T12:41:00;7.70;;;4.00;;
59938;SDS011;45801;51.810;19.444;2023-04-24T12:43:29;6.80;;;3.60;;
59938;SDS011;45801;51.810;19.444;2023-04-24T12:45:55;8.80;;;4.00;;
59938;SDS011;45801;51.810;19.444;2023-04-24T12:48:23;9.40;;;3.60;;
59938;SDS011;45801;51.810;19.444;2023-04-24T12:50:50;8.50;;;3.80;;
59938;SDS011;45801;51.810;19.444;2023-04-24T12:53:17;7.60;;;3.80;;
59938;SDS011;45801;51.810;19.444;2023-04-24T12:55:43;7.80;;;4.50;;
59938;SDS011;45801;51.810;19.444;2023-04-24T12:58:11;9.50;;;4.40;;
59938;SDS011;45801;51.810;19.444;2023-04-24T13:00:38;8.80;;;4.00;;
59938;SDS011;45801;51.810;19.444;2023-04-24T13:03:05;7.00;;;3.70;;
59938;SDS011;45801;51.810;19.444;2023-04-24T13:05:31;7.10;;;3.60;;
59938;SDS011;45801;51.810;19.444;2023-04-24T13:07:58;7.30;;;3.80;;
59938;SDS011;45801;51.810;19.444;2023-04-24T13:10:25;7.80;;;3.90;;
59938;SDS011;45801;51.810;19.444;2023-04-24T13:12:51;7.80;;;3.80;;
59938;SDS011;45801;51.810;19.444;2023-04-24T13:15:18;7.20;;;3.60;;
59938;SDS011;45801;51.810;19.444;2023-04-24T13:17:45;8.20;;;3.70;;
59938;SDS011;45801;51.810;19.444;2023-04-24T13:20:11;8.40;;;3.60;;
59938;SDS011;45801;51.810;19.444;2023-04-24T13:22:38;6.80;;;3.50;;
59938;SDS011;45801;51.810;19.444;2023-04-24T13:25:04;7.00;;;3.10;;
59938;SDS011;45801;51.810;19.444;2023-04-24T13:27:32;6.80;;;3.30;;
59938;SDS011;45801;51.810;19.444;2023-04-24T13:29:59;7.70;;;3.00;;
59938;SDS011;45801;51.810;19.444;2023-04-24T13:32:25;8.30;;;3.60;;
59938;SDS011;45801;51.810;19.444;2023-04-24T13:34:52;8.80;;;4.00;;
59938;SDS011;45801;51.810;19.444;2023-04-24T13:37:19;8.50;;;3.70;;
59938;SDS011;45801;51.810;19.444;2023-04-24T13:39:45;7.80;;;3.40;;
59938;SDS011;45801;51.810;19.444;2023-04-24T13:42:12;7.40;;;3.70;;
59938;SDS011;45801;51.810;19.444;2023-04-24T13:44:39;8.50;;;3.60;;
59938;SDS011;45801;51.810;19.444;2023-04-24T13:47:06;6.70;;;3.50;;
59938;SDS011;45801;51.810;19.444;2023-04-24T13:49:33;10.30;;;3.80;;
59938;SDS011;45801;51.810;19.444;2023-04-24T13:51:59;9.90;;;3.90;;
59938;SDS011;45801;51.810;19.444;2023-04-24T13:54:26;8.20;;;4.30;;
59938;SDS011;45801;51.810;19.444;2023-04-24T13:56:52;8.80;;;4.30;;
59938;SDS011;45801;51.810;19.444;2023-04-24T13:59:19;9.30;;;4.40;;
59938;SDS011;45801;51.810;19.444;2023-04-24T14:01:46;10.00;;;4.30;;
59938;SDS011;45801;51.810;19.444;2023-04-24T14:04:13;13.10;;;4.60;;
59938;SDS011;45801;51.810;19.444;2023-04-24T14:06:40;8.90;;;4.10;;
59938;SDS011;45801;51.810;19.444;2023-04-24T14:09:06;9.10;;;4.30;;
59938;SDS011;45801;51.810;19.444;2023-04-24T14:11:33;10.20;;;4.00;;
59938;SDS011;45801;51.810;19.444;2023-04-24T14:14:00;7.60;;;4.40;;
59938;SDS011;45801;51.810;19.444;2023-04-24T14:16:27;8.90;;;4.20;;
59938;SDS011;45801;51.810;19.444;2023-04-24T14:18:54;8.80;;;4.10;;
59938;SDS011;45801;51.810;19.444;2023-04-24T14:21:22;8.90;;;4.40;;
59938;SDS011;45801;51.810;19.444;2023-04-24T14:23:48;9.70;;;4.80;;
59938;SDS011;45801;51.810;19.444;2023-04-24T14:26:15;9.90;;;4.60;;
59938;SDS011;45801;51.810;19.444;2023-04-24T14:28:42;7.70;;;4.50;;
59938;SDS011;45801;51.810;19.444;2023-04-24T14:31:08;12.70;;;4.90;;
59938;SDS011;45801;51.810;19.444;2023-04-24T14:33:35;8.60;;;4.40;;
59938;SDS011;45801;51.810;19.444;2023-04-24T14:36:02;11.30;;;4.40;;
59938;SDS011;45801;51.810;19.444;2023-04-24T14:38:30;9.90;;;4.50;;
59938;SDS011;45801;51.810;19.444;2023-04-24T14:40:57;8.90;;;4.60;;
59938;SDS011;45801;51.810;19.444;2023-04-24T14:43:24;11.50;;;4.50;;
59938;SDS011;45801;51.810;19.444;2023-04-24T14:45:50;10.10;;;4.50;;
59938;SDS011;45801;51.810;19.444;2023-04-24T14:48:17;10.10;;;4.30;;
59938;SDS011;45801;51.810;19.444;2023-04-24T14:50:43;9.50;;;4.80;;
59938;SDS011;45801;51.810;19.444;2023-04-24T14:53:11;8.00;;;4.40;;
59938;SDS011;45801;51.810;19.444;2023-04-24T14:55:37;8.20;;;4.10;;
59938;SDS011;45801;51.810;19.444;2023-04-24T14:58:04;7.80;;;4.40;;